sensor_id;sensor_type;location;lat;lon;timestamp;P1;durP1;ratioP1;P2;durP2;ratioP2
21213;SDS011;10764;50.850;2.904;2022-10-13T00:00:12;1250.97;;;999.90;;
21213;SDS011;10764;50.850;2.904;2022-10-13T00:02:40;1247.25;;;999.90;;
21213;SDS011;10764;50.850;2.904;2022-10-13T00:05:07;1243.95;;;999.90;;
21213;SDS011;10764;50.850;2.904;2022-10-13T00:07:34;1252.18;;;999.90;;
21213;SDS011;10764;50.850;2.904;2022-10-13T00:10:02;1249.95;;;999.90;;
21213;SDS011;10764;50.850;2.904;2022-10-13T00:12:29;1251.38;;;999.90;;
21213;SDS011;10764;50.850;2.904;2022-10-13T00:15:02;1246.05;;;999.90;;
21213;SDS011;10764;50.850;2.904;2022-10-13T00:17:30;1245.95;;;999.90;;
21213;SDS011;10764;50.850;2.904;2022-10-13T00:19:57;1245.40;;;999.90;;
21213;SDS011;10764;50.850;2.904;2022-10-13T00:22:26;1243.78;;;999.90;;
21213;SDS011;10764;50.850;2.904;2022-10-13T00:24:53;1251.10;;;999.90;;
21213;SDS011;10764;50.850;2.904;2022-10-13T00:27:21;1243.57;;;999.90;;
21213;SDS011;10764;50.850;2.904;2022-10-13T00:29:48;1246.53;;;999.90;;
21213;SDS011;10764;50.850;2.904;2022-10-13T00:32:15;1243.28;;;999.90;;
21213;SDS011;10764;50.850;2.904;2022-10-13T00:34:43;1237.80;;;999.90;;
21213;SDS011;10764;50.850;2.904;2022-10-13T00:37:10;1244.68;;;999.90;;
21213;SDS011;10764;50.850;2.904;2022-10-13T00:39:37;1239.40;;;999.90;;
21213;SDS011;10764;50.850;2.904;2022-10-13T00:42:05;1243.35;;;999.90;;
21213;SDS011;10764;50.850;2.904;2022-10-13T00:47:19;1247.87;;;999.90;;
21213;SDS011;10764;50.850;2.904;2022-10-13T00:49:47;1246.75;;;999.90;;
21213;SDS011;10764;50.850;2.904;2022-10-13T00:52:15;1255.78;;;999.90;;
21213;SDS011;10764;50.850;2.904;2022-10-13T00:54:43;1250.15;;;999.90;;
21213;SDS011;10764;50.850;2.904;2022-10-13T00:57:11;1256.15;;;999.90;;
21213;SDS011;10764;50.850;2.904;2022-10-13T00:59:38;1253.35;;;999.90;;
21213;SDS011;10764;50.850;2.904;2022-10-13T01:02:06;1254.70;;;999.90;;
21213;SDS011;10764;50.850;2.904;2022-10-13T01:04:35;1253.93;;;999.90;;
21213;SDS011;10764;50.850;2.904;2022-10-13T01:07:03;1257.40;;;999.90;;
21213;SDS011;10764;50.850;2.904;2022-10-13T01:09:31;1258.00;;;999.90;;
21213;SDS011;10764;50.850;2.904;2022-10-13T01:12:15;1261.17;;;999.90;;
21213;SDS011;10764;50.850;2.904;2022-10-13T01:14:48;1259.68;;;999.90;;
21213;SDS011;10764;50.850;2.904;2022-10-13T01:17:41;1253.43;;;999.90;;
21213;SDS011;10764;50.850;2.904;2022-10-13T01:30:19;1252.80;;;999.90;;
21213;SDS011;10764;50.850;2.904;2022-10-13T01:32:59;1252.53;;;999.90;;
21213;SDS011;10764;50.850;2.904;2022-10-13T01:40:42;1246.55;;;999.90;;
21213;SDS011;10764;50.850;2.904;2022-10-13T01:48:21;1252.70;;;999.90;;
21213;SDS011;10764;50.850;2.904;2022-10-13T01:50:50;1248.53;;;999.90;;
21213;SDS011;10764;50.850;2.904;2022-10-13T01:53:18;1246.90;;;999.90;;
21213;SDS011;10764;50.850;2.904;2022-10-13T01:55:52;1251.72;;;999.90;;
21213;SDS011;10764;50.850;2.904;2022-10-13T01:58:20;1250.30;;;999.90;;
21213;SDS011;10764;50.850;2.904;2022-10-13T02:00:50;1246.60;;;999.90;;
21213;SDS011;10764;50.850;2.904;2022-10-13T02:03:25;1247.50;;;999.90;;
21213;SDS011;10764;50.850;2.904;2022-10-13T02:06:04;1249.57;;;999.90;;
21213;SDS011;10764;50.850;2.904;2022-10-13T02:08:37;1251.05;;;999.90;;
21213;SDS011;10764;50.850;2.904;2022-10-13T02:11:21;1253.85;;;999.90;;
21213;SDS011;10764;50.850;2.904;2022-10-13T02:13:51;1248.30;;;999.90;;
21213;SDS011;10764;50.850;2.904;2022-10-13T02:16:20;1250.95;;;999.90;;
21213;SDS011;10764;50.850;2.904;2022-10-13T02:18:49;1252.35;;;999.90;;
21213;SDS011;10764;50.850;2.904;2022-10-13T02:21:16;1252.10;;;999.90;;
21213;SDS011;10764;50.850;2.904;2022-10-13T02:23:43;1254.03;;;999.90;;
21213;SDS011;10764;50.850;2.904;2022-10-13T02:26:11;1253.60;;;999.90;;
21213;SDS011;10764;50.850;2.904;2022-10-13T02:28:39;1255.82;;;999.90;;
21213;SDS011;10764;50.850;2.904;2022-10-13T02:31:07;1252.15;;;999.90;;
21213;SDS011;10764;50.850;2.904;2022-10-13T02:33:34;1252.25;;;999.90;;
21213;SDS011;10764;50.850;2.904;2022-10-13T02:36:01;1252.97;;;999.90;;
21213;SDS011;10764;50.850;2.904;2022-10-13T02:38:46;1259.78;;;999.90;;
21213;SDS011;10764;50.850;2.904;2022-10-13T02:41:13;1253.55;;;999.90;;
21213;SDS011;10764;50.850;2.904;2022-10-13T02:43:40;1250.47;;;999.90;;
21213;SDS011;10764;50.850;2.904;2022-10-13T02:46:07;1251.35;;;999.90;;
21213;SDS011;10764;50.850;2.904;2022-10-13T02:48:52;1254.77;;;999.90;;
21213;SDS011;10764;50.850;2.904;2022-10-13T02:51:19;1244.35;;;999.90;;
21213;SDS011;10764;50.850;2.904;2022-10-13T02:53:46;1238.05;;;999.90;;
21213;SDS011;10764;50.850;2.904;2022-10-13T02:56:14;1242.95;;;999.90;;
21213;SDS011;10764;50.850;2.904;2022-10-13T02:58:41;1238.70;;;999.90;;
21213;SDS011;10764;50.850;2.904;2022-10-13T03:01:09;1237.85;;;999.90;;
21213;SDS011;10764;50.850;2.904;2022-10-13T03:03:37;1236.45;;;999.90;;
21213;SDS011;10764;50.850;2.904;2022-10-13T03:06:05;1231.32;;;999.90;;
21213;SDS011;10764;50.850;2.904;2022-10-13T03:08:33;1232.80;;;999.90;;
21213;SDS011;10764;50.850;2.904;2022-10-13T03:11:00;1233.90;;;999.90;;
21213;SDS011;10764;50.850;2.904;2022-10-13T03:13:28;1235.90;;;999.90;;
21213;SDS011;10764;50.850;2.904;2022-10-13T03:16:02;1231.03;;;999.90;;
21213;SDS011;10764;50.850;2.904;2022-10-13T03:18:29;1232.73;;;999.90;;
21213;SDS011;10764;50.850;2.904;2022-10-13T03:20:57;1234.50;;;999.90;;
21213;SDS011;10764;50.850;2.904;2022-10-13T03:23:25;1233.30;;;999.90;;
21213;SDS011;10764;50.850;2.904;2022-10-13T03:25:52;1239.63;;;999.90;;
21213;SDS011;10764;50.850;2.904;2022-10-13T03:28:20;1242.20;;;999.90;;
21213;SDS011;10764;50.850;2.904;2022-10-13T03:30:49;1245.97;;;999.90;;
21213;SDS011;10764;50.850;2.904;2022-10-13T03:33:16;1241.73;;;999.90;;
21213;SDS011;10764;50.850;2.904;2022-10-13T03:35:43;1244.22;;;999.90;;
21213;SDS011;10764;50.850;2.904;2022-10-13T03:38:11;1245.38;;;999.90;;
21213;SDS011;10764;50.850;2.904;2022-10-13T03:40:38;1173.38;;;999.90;;
21213;SDS011;10764;50.850;2.904;2022-10-13T03:43:05;1186.03;;;999.90;;
21213;SDS011;10764;50.850;2.904;2022-10-13T03:45:32;1195.70;;;999.90;;
21213;SDS011;10764;50.850;2.904;2022-10-13T03:47:59;1214.13;;;999.90;;
21213;SDS011;10764;50.850;2.904;2022-10-13T03:50:27;1244.90;;;999.90;;
21213;SDS011;10764;50.850;2.904;2022-10-13T03:52:54;1250.40;;;999.90;;
21213;SDS011;10764;50.850;2.904;2022-10-13T03:55:21;1199.28;;;999.90;;
21213;SDS011;10764;50.850;2.904;2022-10-13T03:57:48;1202.23;;;999.90;;
21213;SDS011;10764;50.850;2.904;2022-10-13T04:00:15;1206.78;;;999.90;;
21213;SDS011;10764;50.850;2.904;2022-10-13T04:02:42;1198.20;;;999.90;;
21213;SDS011;10764;50.850;2.904;2022-10-13T04:05:10;1200.22;;;999.90;;
21213;SDS011;10764;50.850;2.904;2022-10-13T04:07:37;1176.93;;;999.90;;
21213;SDS011;10764;50.850;2.904;2022-10-13T04:10:16;1184.50;;;999.90;;
21213;SDS011;10764;50.850;2.904;2022-10-13T04:12:44;1187.43;;;999.90;;
21213;SDS011;10764;50.850;2.904;2022-10-13T04:15:11;1178.00;;;999.90;;
21213;SDS011;10764;50.850;2.904;2022-10-13T04:17:38;1183.07;;;999.90;;
21213;SDS011;10764;50.850;2.904;2022-10-13T04:20:05;1063.88;;;980.38;;
21213;SDS011;10764;50.850;2.904;2022-10-13T04:22:33;1098.60;;;999.90;;
21213;SDS011;10764;50.850;2.904;2022-10-13T04:25:00;1114.20;;;999.90;;
21213;SDS011;10764;50.850;2.904;2022-10-13T04:27:27;1135.13;;;999.90;;
21213;SDS011;10764;50.850;2.904;2022-10-13T04:29:55;1156.87;;;999.90;;
21213;SDS011;10764;50.850;2.904;2022-10-13T04:32:22;1174.17;;;999.90;;
21213;SDS011;10764;50.850;2.904;2022-10-13T04:34:49;1172.50;;;999.90;;
21213;SDS011;10764;50.850;2.904;2022-10-13T04:37:17;1183.38;;;999.90;;
21213;SDS011;10764;50.850;2.904;2022-10-13T04:39:44;1166.17;;;999.90;;
21213;SDS011;10764;50.850;2.904;2022-10-13T04:42:11;1152.05;;;999.90;;
21213;SDS011;10764;50.850;2.904;2022-10-13T04:44:38;1160.72;;;999.90;;
21213;SDS011;10764;50.850;2.904;2022-10-13T04:47:10;1162.65;;;999.90;;
21213;SDS011;10764;50.850;2.904;2022-10-13T04:49:37;1156.40;;;999.90;;
21213;SDS011;10764;50.850;2.904;2022-10-13T04:52:04;1156.03;;;999.90;;
21213;SDS011;10764;50.850;2.904;2022-10-13T04:54:32;1170.80;;;999.90;;
21213;SDS011;10764;50.850;2.904;2022-10-13T04:56:59;1162.80;;;999.90;;
21213;SDS011;10764;50.850;2.904;2022-10-13T04:59:26;1169.63;;;999.90;;
21213;SDS011;10764;50.850;2.904;2022-10-13T05:01:53;1175.05;;;999.90;;
21213;SDS011;10764;50.850;2.904;2022-10-13T05:04:20;1167.32;;;999.90;;
21213;SDS011;10764;50.850;2.904;2022-10-13T05:06:48;1179.60;;;999.90;;
21213;SDS011;10764;50.850;2.904;2022-10-13T05:09:35;1182.80;;;999.90;;
21213;SDS011;10764;50.850;2.904;2022-10-13T05:12:08;1179.38;;;999.90;;
21213;SDS011;10764;50.850;2.904;2022-10-13T05:14:36;1177.43;;;999.90;;
21213;SDS011;10764;50.850;2.904;2022-10-13T05:17:06;1181.18;;;999.90;;
21213;SDS011;10764;50.850;2.904;2022-10-13T05:19:33;1149.73;;;999.90;;
21213;SDS011;10764;50.850;2.904;2022-10-13T05:22:00;1166.28;;;999.90;;
21213;SDS011;10764;50.850;2.904;2022-10-13T05:24:28;1146.95;;;999.90;;
21213;SDS011;10764;50.850;2.904;2022-10-13T05:27:05;1151.38;;;999.90;;
21213;SDS011;10764;50.850;2.904;2022-10-13T05:29:33;1178.22;;;999.90;;
21213;SDS011;10764;50.850;2.904;2022-10-13T05:32:00;1206.57;;;999.90;;
21213;SDS011;10764;50.850;2.904;2022-10-13T05:34:27;1207.90;;;999.90;;
21213;SDS011;10764;50.850;2.904;2022-10-13T05:36:55;1197.38;;;999.90;;
21213;SDS011;10764;50.850;2.904;2022-10-13T05:39:22;1177.05;;;999.90;;
21213;SDS011;10764;50.850;2.904;2022-10-13T05:41:49;1157.35;;;999.90;;
21213;SDS011;10764;50.850;2.904;2022-10-13T05:44:19;1170.88;;;999.90;;
21213;SDS011;10764;50.850;2.904;2022-10-13T05:46:54;1194.10;;;999.90;;
21213;SDS011;10764;50.850;2.904;2022-10-13T05:49:21;1183.03;;;999.90;;
21213;SDS011;10764;50.850;2.904;2022-10-13T05:51:49;1096.05;;;999.90;;
21213;SDS011;10764;50.850;2.904;2022-10-13T05:54:23;1117.13;;;999.90;;
21213;SDS011;10764;50.850;2.904;2022-10-13T05:56:59;1138.60;;;999.90;;
21213;SDS011;10764;50.850;2.904;2022-10-13T05:59:28;1127.80;;;999.90;;
21213;SDS011;10764;50.850;2.904;2022-10-13T06:01:56;1050.35;;;968.25;;
21213;SDS011;10764;50.850;2.904;2022-10-13T06:04:25;1033.10;;;952.07;;
21213;SDS011;10764;50.850;2.904;2022-10-13T06:06:52;1025.13;;;943.58;;
21213;SDS011;10764;50.850;2.904;2022-10-13T06:09:19;1015.20;;;934.30;;
21213;SDS011;10764;50.850;2.904;2022-10-13T06:11:47;930.70;;;855.33;;
21213;SDS011;10764;50.850;2.904;2022-10-13T06:14:14;948.67;;;871.97;;
21213;SDS011;10764;50.850;2.904;2022-10-13T06:16:41;949.00;;;871.20;;
21213;SDS011;10764;50.850;2.904;2022-10-13T06:19:08;846.40;;;776.38;;
21213;SDS011;10764;50.850;2.904;2022-10-13T06:21:36;826.22;;;757.72;;
21213;SDS011;10764;50.850;2.904;2022-10-13T06:24:03;865.43;;;794.13;;
21213;SDS011;10764;50.850;2.904;2022-10-13T06:26:30;840.43;;;771.03;;
21213;SDS011;10764;50.850;2.904;2022-10-13T06:28:58;852.00;;;781.78;;
21213;SDS011;10764;50.850;2.904;2022-10-13T06:31:27;868.42;;;796.92;;
21213;SDS011;10764;50.850;2.904;2022-10-13T06:33:54;886.28;;;813.63;;
21213;SDS011;10764;50.850;2.904;2022-10-13T06:36:21;841.22;;;771.83;;
21213;SDS011;10764;50.850;2.904;2022-10-13T06:38:49;906.93;;;833.13;;
21213;SDS011;10764;50.850;2.904;2022-10-13T06:41:19;900.17;;;826.45;;
21213;SDS011;10764;50.850;2.904;2022-10-13T06:43:46;906.77;;;832.73;;
21213;SDS011;10764;50.850;2.904;2022-10-13T06:46:15;894.15;;;820.58;;
21213;SDS011;10764;50.850;2.904;2022-10-13T06:48:42;900.63;;;827.00;;
21213;SDS011;10764;50.850;2.904;2022-10-13T06:51:10;894.47;;;820.80;;
21213;SDS011;10764;50.850;2.904;2022-10-13T06:53:37;885.95;;;813.28;;
21213;SDS011;10764;50.850;2.904;2022-10-13T06:56:05;897.00;;;824.10;;
21213;SDS011;10764;50.850;2.904;2022-10-13T06:58:33;910.25;;;835.83;;
21213;SDS011;10764;50.850;2.904;2022-10-13T07:01:01;871.03;;;799.25;;
21213;SDS011;10764;50.850;2.904;2022-10-13T07:03:28;889.80;;;817.03;;
21213;SDS011;10764;50.850;2.904;2022-10-13T07:06:02;897.22;;;823.70;;
21213;SDS011;10764;50.850;2.904;2022-10-13T07:08:29;895.88;;;822.63;;
21213;SDS011;10764;50.850;2.904;2022-10-13T07:10:57;877.58;;;805.55;;
21213;SDS011;10764;50.850;2.904;2022-10-13T07:13:24;846.45;;;776.35;;
21213;SDS011;10764;50.850;2.904;2022-10-13T07:15:51;837.87;;;768.33;;
21213;SDS011;10764;50.850;2.904;2022-10-13T07:18:18;851.97;;;781.67;;
21213;SDS011;10764;50.850;2.904;2022-10-13T07:20:46;837.53;;;768.47;;
21213;SDS011;10764;50.850;2.904;2022-10-13T07:23:13;847.10;;;777.63;;
21213;SDS011;10764;50.850;2.904;2022-10-13T07:25:40;836.70;;;767.72;;
21213;SDS011;10764;50.850;2.904;2022-10-13T07:28:07;846.30;;;776.77;;
21213;SDS011;10764;50.850;2.904;2022-10-13T07:30:37;849.35;;;779.35;;
21213;SDS011;10764;50.850;2.904;2022-10-13T07:33:04;874.50;;;803.00;;
21213;SDS011;10764;50.850;2.904;2022-10-13T07:35:31;850.13;;;779.97;;
21213;SDS011;10764;50.850;2.904;2022-10-13T07:37:58;853.30;;;782.50;;
21213;SDS011;10764;50.850;2.904;2022-10-13T07:40:25;821.40;;;753.22;;
21213;SDS011;10764;50.850;2.904;2022-10-13T07:42:54;854.10;;;783.25;;
21213;SDS011;10764;50.850;2.904;2022-10-13T07:45:22;848.05;;;777.65;;
21213;SDS011;10764;50.850;2.904;2022-10-13T07:47:49;863.60;;;792.33;;
21213;SDS011;10764;50.850;2.904;2022-10-13T07:50:16;890.33;;;817.25;;
21213;SDS011;10764;50.850;2.904;2022-10-13T07:52:43;885.50;;;812.72;;
21213;SDS011;10764;50.850;2.904;2022-10-13T07:55:11;883.38;;;810.65;;
21213;SDS011;10764;50.850;2.904;2022-10-13T07:57:38;928.40;;;852.88;;
21213;SDS011;10764;50.850;2.904;2022-10-13T08:00:05;931.47;;;855.90;;
21213;SDS011;10764;50.850;2.904;2022-10-13T08:02:42;898.25;;;824.95;;
21213;SDS011;10764;50.850;2.904;2022-10-13T08:05:09;919.45;;;844.50;;
21213;SDS011;10764;50.850;2.904;2022-10-13T08:07:36;874.60;;;802.57;;
21213;SDS011;10764;50.850;2.904;2022-10-13T08:10:04;889.13;;;816.67;;
21213;SDS011;10764;50.850;2.904;2022-10-13T08:12:33;921.03;;;846.63;;
21213;SDS011;10764;50.850;2.904;2022-10-13T08:15:01;928.22;;;853.13;;
21213;SDS011;10764;50.850;2.904;2022-10-13T08:17:31;947.03;;;870.67;;
21213;SDS011;10764;50.850;2.904;2022-10-13T08:19:59;941.13;;;865.15;;
21213;SDS011;10764;50.850;2.904;2022-10-13T08:22:26;965.78;;;888.45;;
21213;SDS011;10764;50.850;2.904;2022-10-13T08:24:54;965.78;;;888.72;;
21213;SDS011;10764;50.850;2.904;2022-10-13T08:27:22;980.13;;;902.17;;
21213;SDS011;10764;50.850;2.904;2022-10-13T08:30:02;1019.50;;;938.78;;
21213;SDS011;10764;50.850;2.904;2022-10-13T08:32:30;1014.70;;;934.23;;
21213;SDS011;10764;50.850;2.904;2022-10-13T08:34:57;1006.87;;;926.87;;
21213;SDS011;10764;50.850;2.904;2022-10-13T08:37:25;1088.32;;;999.90;;
21213;SDS011;10764;50.850;2.904;2022-10-13T08:39:56;1151.22;;;999.90;;
21213;SDS011;10764;50.850;2.904;2022-10-13T08:42:23;1022.75;;;941.65;;
21213;SDS011;10764;50.850;2.904;2022-10-13T08:44:57;1072.03;;;988.25;;
21213;SDS011;10764;50.850;2.904;2022-10-13T08:47:50;1122.00;;;999.90;;
21213;SDS011;10764;50.850;2.904;2022-10-13T08:50:20;1010.33;;;930.13;;
21213;SDS011;10764;50.850;2.904;2022-10-13T08:52:58;1025.55;;;944.28;;
21213;SDS011;10764;50.850;2.904;2022-10-13T08:57:57;1112.50;;;999.90;;
21213;SDS011;10764;50.850;2.904;2022-10-13T09:00:24;1108.40;;;999.90;;
21213;SDS011;10764;50.850;2.904;2022-10-13T09:02:52;1159.00;;;999.90;;
21213;SDS011;10764;50.850;2.904;2022-10-13T09:05:28;1161.13;;;999.90;;
21213;SDS011;10764;50.850;2.904;2022-10-13T09:08:02;1145.88;;;999.90;;
21213;SDS011;10764;50.850;2.904;2022-10-13T09:10:31;996.35;;;917.65;;
21213;SDS011;10764;50.850;2.904;2022-10-13T09:12:58;968.50;;;890.97;;
21213;SDS011;10764;50.850;2.904;2022-10-13T09:15:26;958.20;;;881.60;;
21213;SDS011;10764;50.850;2.904;2022-10-13T09:18:06;939.97;;;864.17;;
21213;SDS011;10764;50.850;2.904;2022-10-13T09:20:34;925.55;;;850.50;;
21213;SDS011;10764;50.850;2.904;2022-10-13T09:25:42;939.92;;;863.67;;
21213;SDS011;10764;50.850;2.904;2022-10-13T09:28:26;934.17;;;858.60;;
21213;SDS011;10764;50.850;2.904;2022-10-13T09:31:05;907.45;;;833.55;;
21213;SDS011;10764;50.850;2.904;2022-10-13T09:33:39;880.90;;;808.40;;
21213;SDS011;10764;50.850;2.904;2022-10-13T09:36:10;889.28;;;816.28;;
21213;SDS011;10764;50.850;2.904;2022-10-13T09:38:38;849.00;;;778.75;;
21213;SDS011;10764;50.850;2.904;2022-10-13T09:46:10;1025.60;;;945.10;;
21213;SDS011;10764;50.850;2.904;2022-10-13T09:48:37;1009.83;;;929.92;;
21213;SDS011;10764;50.850;2.904;2022-10-13T09:51:31;1097.03;;;999.90;;
21213;SDS011;10764;50.850;2.904;2022-10-13T09:56:52;1150.20;;;999.90;;
21213;SDS011;10764;50.850;2.904;2022-10-13T09:59:31;1134.23;;;999.90;;
21213;SDS011;10764;50.850;2.904;2022-10-13T10:02:00;1118.50;;;999.90;;
21213;SDS011;10764;50.850;2.904;2022-10-13T10:04:34;1057.95;;;974.63;;
21213;SDS011;10764;50.850;2.904;2022-10-13T10:07:08;1142.22;;;999.90;;
21213;SDS011;10764;50.850;2.904;2022-10-13T10:12:42;1118.55;;;999.90;;
21213;SDS011;10764;50.850;2.904;2022-10-13T10:15:19;1162.38;;;999.90;;
21213;SDS011;10764;50.850;2.904;2022-10-13T10:18:10;1184.00;;;999.90;;
21213;SDS011;10764;50.850;2.904;2022-10-13T10:20:44;1157.07;;;999.90;;
21213;SDS011;10764;50.850;2.904;2022-10-13T10:23:21;1202.25;;;999.90;;
21213;SDS011;10764;50.850;2.904;2022-10-13T10:28:17;1207.10;;;999.90;;
21213;SDS011;10764;50.850;2.904;2022-10-13T10:30:54;1073.05;;;988.05;;
21213;SDS011;10764;50.850;2.904;2022-10-13T10:33:34;871.65;;;800.33;;
21213;SDS011;10764;50.850;2.904;2022-10-13T10:36:12;832.37;;;763.73;;
21213;SDS011;10764;50.850;2.904;2022-10-13T10:38:47;788.80;;;723.15;;
21213;SDS011;10764;50.850;2.904;2022-10-13T10:43:51;801.28;;;734.75;;
21213;SDS011;10764;50.850;2.904;2022-10-13T10:46:20;805.28;;;738.67;;
21213;SDS011;10764;50.850;2.904;2022-10-13T10:48:49;807.35;;;740.55;;
21213;SDS011;10764;50.850;2.904;2022-10-13T10:51:19;871.50;;;800.30;;
21213;SDS011;10764;50.850;2.904;2022-10-13T10:56:38;1135.50;;;999.90;;
21213;SDS011;10764;50.850;2.904;2022-10-13T11:07:01;1045.47;;;963.45;;
21213;SDS011;10764;50.850;2.904;2022-10-13T11:19:46;1157.13;;;999.90;;
21213;SDS011;10764;50.850;2.904;2022-10-13T11:22:15;1171.82;;;999.90;;
21213;SDS011;10764;50.850;2.904;2022-10-13T11:24:56;1078.37;;;994.30;;
21213;SDS011;10764;50.850;2.904;2022-10-13T11:27:25;1074.93;;;991.38;;
21213;SDS011;10764;50.850;2.904;2022-10-13T11:29:54;1046.82;;;964.83;;
21213;SDS011;10764;50.850;2.904;2022-10-13T11:34:59;1089.65;;;999.90;;
21213;SDS011;10764;50.850;2.904;2022-10-13T11:37:42;1151.18;;;999.90;;
21213;SDS011;10764;50.850;2.904;2022-10-13T11:45:31;1122.70;;;999.90;;
21213;SDS011;10764;50.850;2.904;2022-10-13T11:56:19;926.65;;;851.47;;
21213;SDS011;10764;50.850;2.904;2022-10-13T11:58:47;945.67;;;869.15;;
21213;SDS011;10764;50.850;2.904;2022-10-13T12:01:15;980.60;;;901.97;;
21213;SDS011;10764;50.850;2.904;2022-10-13T12:03:43;969.10;;;891.10;;
21213;SDS011;10764;50.850;2.904;2022-10-13T12:08:47;967.78;;;889.97;;
21213;SDS011;10764;50.850;2.904;2022-10-13T12:11:54;962.95;;;885.17;;
21213;SDS011;10764;50.850;2.904;2022-10-13T12:14:18;975.92;;;897.63;;
21213;SDS011;10764;50.850;2.904;2022-10-13T12:16:53;883.37;;;811.20;;
21213;SDS011;10764;50.850;2.904;2022-10-13T12:19:22;890.38;;;817.97;;
21213;SDS011;10764;50.850;2.904;2022-10-13T12:21:51;930.65;;;855.30;;
21213;SDS011;10764;50.850;2.904;2022-10-13T12:24:23;952.35;;;875.80;;
21213;SDS011;10764;50.850;2.904;2022-10-13T12:26:50;957.70;;;880.67;;
21213;SDS011;10764;50.850;2.904;2022-10-13T12:29:18;1017.92;;;937.00;;
21213;SDS011;10764;50.850;2.904;2022-10-13T12:31:47;1024.45;;;943.58;;
21213;SDS011;10764;50.850;2.904;2022-10-13T12:36:45;1018.80;;;938.13;;
21213;SDS011;10764;50.850;2.904;2022-10-13T12:39:13;1027.63;;;946.10;;
21213;SDS011;10764;50.850;2.904;2022-10-13T12:41:44;1038.65;;;956.65;;
21213;SDS011;10764;50.850;2.904;2022-10-13T12:44:19;1022.08;;;940.95;;
21213;SDS011;10764;50.850;2.904;2022-10-13T12:46:48;1028.45;;;947.08;;
21213;SDS011;10764;50.850;2.904;2022-10-13T12:49:24;1109.03;;;999.90;;
21213;SDS011;10764;50.850;2.904;2022-10-13T12:52:03;1127.90;;;999.90;;
21213;SDS011;10764;50.850;2.904;2022-10-13T12:54:32;1167.60;;;999.90;;
21213;SDS011;10764;50.850;2.904;2022-10-13T12:57:03;1174.25;;;999.90;;
21213;SDS011;10764;50.850;2.904;2022-10-13T12:59:31;1166.37;;;999.90;;
21213;SDS011;10764;50.850;2.904;2022-10-13T13:02:00;1155.20;;;999.90;;
21213;SDS011;10764;50.850;2.904;2022-10-13T13:04:29;1147.85;;;999.90;;
21213;SDS011;10764;50.850;2.904;2022-10-13T13:07:01;1169.93;;;999.90;;
21213;SDS011;10764;50.850;2.904;2022-10-13T13:09:32;1167.18;;;999.90;;
21213;SDS011;10764;50.850;2.904;2022-10-13T13:12:14;1150.77;;;999.90;;
21213;SDS011;10764;50.850;2.904;2022-10-13T13:14:46;1171.90;;;999.90;;
21213;SDS011;10764;50.850;2.904;2022-10-13T13:20:17;1166.53;;;999.90;;
21213;SDS011;10764;50.850;2.904;2022-10-13T13:22:45;1181.43;;;999.90;;
21213;SDS011;10764;50.850;2.904;2022-10-13T13:25:13;1147.63;;;999.90;;
21213;SDS011;10764;50.850;2.904;2022-10-13T13:27:40;1165.68;;;999.90;;
21213;SDS011;10764;50.850;2.904;2022-10-13T13:30:14;1156.20;;;999.90;;
21213;SDS011;10764;50.850;2.904;2022-10-13T13:32:41;1164.73;;;999.90;;
21213;SDS011;10764;50.850;2.904;2022-10-13T13:35:09;1135.72;;;999.90;;
21213;SDS011;10764;50.850;2.904;2022-10-13T13:37:45;1155.75;;;999.90;;
21213;SDS011;10764;50.850;2.904;2022-10-13T13:40:16;1158.73;;;999.90;;
21213;SDS011;10764;50.850;2.904;2022-10-13T13:42:44;1170.13;;;999.90;;
21213;SDS011;10764;50.850;2.904;2022-10-13T13:45:14;1170.05;;;999.90;;
21213;SDS011;10764;50.850;2.904;2022-10-13T13:47:42;1142.45;;;999.90;;
21213;SDS011;10764;50.850;2.904;2022-10-13T13:50:12;1165.00;;;999.90;;
21213;SDS011;10764;50.850;2.904;2022-10-13T13:52:45;1161.10;;;999.90;;
21213;SDS011;10764;50.850;2.904;2022-10-13T13:55:13;1162.73;;;999.90;;
21213;SDS011;10764;50.850;2.904;2022-10-13T13:57:41;1152.65;;;999.90;;
21213;SDS011;10764;50.850;2.904;2022-10-13T14:00:09;1167.55;;;999.90;;
21213;SDS011;10764;50.850;2.904;2022-10-13T14:02:37;1171.15;;;999.90;;
21213;SDS011;10764;50.850;2.904;2022-10-13T14:05:05;1175.05;;;999.90;;
21213;SDS011;10764;50.850;2.904;2022-10-13T14:07:32;1197.80;;;999.90;;
21213;SDS011;10764;50.850;2.904;2022-10-13T14:10:00;1155.73;;;999.90;;
21213;SDS011;10764;50.850;2.904;2022-10-13T14:12:31;1183.78;;;999.90;;
21213;SDS011;10764;50.850;2.904;2022-10-13T14:14:58;1141.32;;;999.90;;
21213;SDS011;10764;50.850;2.904;2022-10-13T14:17:26;1170.63;;;999.90;;
21213;SDS011;10764;50.850;2.904;2022-10-13T14:19:54;1166.80;;;999.90;;
21213;SDS011;10764;50.850;2.904;2022-10-13T14:22:24;1180.05;;;999.90;;
21213;SDS011;10764;50.850;2.904;2022-10-13T14:24:52;1141.97;;;999.90;;
21213;SDS011;10764;50.850;2.904;2022-10-13T14:27:19;1146.35;;;999.90;;
21213;SDS011;10764;50.850;2.904;2022-10-13T14:29:47;1131.88;;;999.90;;
21213;SDS011;10764;50.850;2.904;2022-10-13T14:32:15;1168.22;;;999.90;;
21213;SDS011;10764;50.850;2.904;2022-10-13T14:34:42;1155.60;;;999.90;;
21213;SDS011;10764;50.850;2.904;2022-10-13T14:37:09;1183.85;;;999.90;;
21213;SDS011;10764;50.850;2.904;2022-10-13T14:39:36;1140.70;;;999.90;;
21213;SDS011;10764;50.850;2.904;2022-10-13T14:42:03;1139.63;;;999.90;;
21213;SDS011;10764;50.850;2.904;2022-10-13T14:44:31;1124.90;;;999.90;;
21213;SDS011;10764;50.850;2.904;2022-10-13T14:46:58;1144.80;;;999.90;;
21213;SDS011;10764;50.850;2.904;2022-10-13T14:49:25;1152.28;;;999.90;;
21213;SDS011;10764;50.850;2.904;2022-10-13T14:51:52;1175.03;;;999.90;;
21213;SDS011;10764;50.850;2.904;2022-10-13T14:54:19;1180.38;;;999.90;;
21213;SDS011;10764;50.850;2.904;2022-10-13T14:56:47;1171.97;;;999.90;;
21213;SDS011;10764;50.850;2.904;2022-10-13T14:59:14;1157.47;;;999.90;;
21213;SDS011;10764;50.850;2.904;2022-10-13T15:01:41;1156.50;;;999.90;;
21213;SDS011;10764;50.850;2.904;2022-10-13T15:04:09;1184.00;;;999.90;;
21213;SDS011;10764;50.850;2.904;2022-10-13T15:06:36;1168.28;;;999.90;;
21213;SDS011;10764;50.850;2.904;2022-10-13T15:09:07;1175.28;;;999.90;;
21213;SDS011;10764;50.850;2.904;2022-10-13T15:11:39;1192.38;;;999.90;;
21213;SDS011;10764;50.850;2.904;2022-10-13T15:14:07;1211.38;;;999.90;;
21213;SDS011;10764;50.850;2.904;2022-10-13T15:16:35;1221.80;;;999.90;;
21213;SDS011;10764;50.850;2.904;2022-10-13T15:19:03;1211.50;;;999.90;;
21213;SDS011;10764;50.850;2.904;2022-10-13T15:21:30;1210.93;;;999.90;;
21213;SDS011;10764;50.850;2.904;2022-10-13T15:23:58;1215.40;;;999.90;;
21213;SDS011;10764;50.850;2.904;2022-10-13T15:26:26;1229.00;;;999.90;;
21213;SDS011;10764;50.850;2.904;2022-10-13T15:28:53;1237.83;;;999.90;;
21213;SDS011;10764;50.850;2.904;2022-10-13T15:31:21;1232.47;;;999.90;;